createdAt,value
2019-03-31T00:02:44.797Z,12.17
2019-03-31T00:05:37.144Z,11.53
2019-03-31T00:08:24.357Z,10.93
2019-03-31T00:11:12.526Z,11.53
2019-03-31T00:14:00.861Z,11.90
2019-03-31T00:16:52.192Z,11.57
2019-03-31T00:19:38.452Z,11.63
2019-03-31T00:22:26.974Z,12.43
2019-03-31T00:25:15.495Z,11.27
2019-03-31T00:28:03.468Z,12.63
2019-03-31T00:30:52.407Z,11.77
2019-03-31T00:33:40.880Z,10.73
2019-03-31T00:36:29.092Z,11.97
2019-03-31T00:39:17.407Z,10.60
2019-03-31T00:42:05.087Z,10.57
2019-03-31T00:44:52.805Z,10.87
2019-03-31T00:47:41.047Z,10.57
2019-03-31T00:50:29.012Z,11.77
2019-03-31T00:53:16.907Z,10.83
2019-03-31T00:56:05.083Z,11.53
2019-03-31T00:58:54.031Z,12.03
2019-03-31T01:01:48.730Z,12.10
2019-03-31T01:04:36.924Z,11.97
2019-03-31T01:07:27.402Z,11.57
2019-03-31T01:10:15.718Z,11.90
2019-03-31T01:13:04.064Z,11.60
2019-03-31T01:15:53.028Z,11.53
2019-03-31T01:18:41.086Z,12.27
2019-03-31T01:21:29.124Z,10.97
2019-03-31T01:24:17.381Z,11.50
2019-03-31T01:27:06.591Z,10.97
2019-03-31T01:29:55.059Z,12.27
2019-03-31T01:32:43.533Z,11.93
2019-03-31T01:35:31.789Z,11.77
2019-03-31T01:38:20.206Z,11.20
2019-03-31T01:41:08.518Z,10.83
2019-03-31T01:43:56.918Z,10.27
2019-03-31T01:46:45.055Z,11.23
2019-03-31T01:49:32.681Z,10.67
2019-03-31T01:52:20.835Z,10.30
2019-03-31T01:55:09.710Z,11.03
2019-03-31T01:57:57.944Z,11.07
2019-03-31T02:00:51.215Z,10.57
2019-03-31T02:03:39.039Z,10.20
2019-03-31T02:06:27.205Z,10.97
2019-03-31T02:09:15.443Z,10.00
2019-03-31T02:12:03.445Z,10.83
2019-03-31T02:14:51.280Z,11.80
2019-03-31T02:17:39.515Z,10.00
2019-03-31T02:20:27.411Z,11.30
2019-03-31T02:23:15.626Z,11.17
2019-03-31T02:26:04.062Z,11.87
2019-03-31T02:28:51.760Z,10.73
2019-03-31T02:31:39.734Z,12.13
2019-03-31T02:34:28.102Z,11.93
2019-03-31T02:37:16.169Z,11.63
2019-03-31T02:40:04.692Z,11.60
2019-03-31T02:42:52.735Z,11.83
2019-03-31T02:45:40.577Z,11.43
2019-03-31T02:48:28.909Z,12.00
2019-03-31T02:51:17.157Z,10.70
2019-03-31T02:54:05.298Z,10.70
2019-03-31T02:56:54.505Z,12.03
2019-03-31T02:59:43.304Z,10.53
2019-03-31T03:02:41.421Z,11.53
2019-03-31T03:05:24.129Z,11.97
2019-03-31T03:08:14.515Z,10.33
2019-03-31T03:11:03.287Z,11.47
2019-03-31T03:13:51.467Z,11.93
2019-03-31T03:16:40.103Z,12.00
2019-03-31T03:19:28.212Z,11.73
2019-03-31T03:22:16.207Z,12.00
2019-03-31T03:25:04.029Z,11.93
2019-03-31T03:27:51.986Z,11.57
2019-03-31T03:30:40.355Z,12.03
2019-03-31T03:33:28.716Z,11.90
2019-03-31T03:36:17.482Z,11.83
2019-03-31T03:39:07.623Z,12.80
2019-03-31T03:41:55.151Z,11.50
2019-03-31T03:44:43.135Z,11.07
2019-03-31T03:47:31.598Z,11.97
2019-03-31T03:50:19.322Z,11.20
2019-03-31T03:53:07.675Z,11.20
2019-03-31T03:55:55.796Z,12.27
2019-03-31T03:58:44.078Z,11.20
2019-03-31T04:01:32.915Z,11.43
2019-03-31T04:04:21.046Z,12.00
2019-03-31T04:07:09.617Z,10.30
2019-03-31T04:09:57.884Z,12.20
2019-03-31T04:12:46.088Z,12.07
2019-03-31T04:15:33.716Z,11.63
2019-03-31T04:18:21.960Z,11.43
2019-03-31T04:21:10.040Z,11.10
2019-03-31T04:23:58.658Z,11.57
2019-03-31T04:26:46.611Z,12.23
2019-03-31T04:29:34.676Z,10.90
2019-03-31T04:32:22.766Z,11.43
2019-03-31T04:35:11.006Z,11.43
2019-03-31T04:37:59.152Z,10.57
2019-03-31T04:40:47.464Z,10.53
2019-03-31T04:43:36.210Z,11.40
2019-03-31T04:46:24.515Z,11.33
2019-03-31T04:49:12.557Z,11.03
2019-03-31T04:52:00.871Z,11.43
2019-03-31T04:54:49.303Z,10.83
2019-03-31T04:57:37.279Z,12.17
2019-03-31T05:00:25.796Z,11.27
2019-03-31T05:03:13.705Z,10.93
2019-03-31T05:06:01.930Z,12.30
2019-03-31T05:08:49.642Z,10.93
2019-03-31T05:11:37.933Z,12.33
2019-03-31T05:14:25.966Z,11.77
2019-03-31T05:17:13.960Z,11.43
2019-03-31T05:20:02.088Z,12.17
2019-03-31T05:22:52.704Z,11.47
2019-03-31T05:25:39.535Z,11.13
2019-03-31T05:28:27.694Z,12.30
2019-03-31T05:31:15.821Z,11.20
2019-03-31T05:34:18.089Z,12.10
2019-03-31T05:36:53.266Z,12.73
2019-03-31T05:39:41.679Z,12.23
2019-03-31T05:42:29.996Z,11.43
2019-03-31T05:45:18.072Z,11.07
2019-03-31T05:48:06.564Z,12.23
2019-03-31T05:50:54.772Z,10.90
2019-03-31T05:53:43.018Z,10.87
2019-03-31T05:56:31.287Z,10.83
2019-03-31T05:59:19.083Z,11.10
2019-03-31T06:02:06.830Z,10.87
2019-03-31T06:04:54.777Z,10.83
2019-03-31T06:07:42.929Z,11.03
2019-03-31T06:10:30.969Z,11.13
2019-03-31T06:13:19.203Z,10.23
2019-03-31T06:16:07.548Z,10.50
2019-03-31T06:18:55.869Z,11.13
2019-03-31T06:21:44.142Z,11.53
2019-03-31T06:24:32.438Z,11.07
2019-03-31T06:27:20.642Z,10.43
2019-03-31T06:30:09.379Z,10.50
2019-03-31T06:32:57.724Z,11.37
2019-03-31T06:35:45.957Z,10.63
2019-03-31T06:38:33.934Z,11.23
2019-03-31T06:41:21.969Z,11.37
2019-03-31T06:44:10.489Z,10.30
2019-03-31T06:46:58.609Z,10.00
2019-03-31T06:49:46.891Z,11.03
2019-03-31T06:52:34.997Z,12.47
2019-03-31T06:55:23.178Z,11.10
2019-03-31T06:58:11.418Z,12.20
2019-03-31T07:00:59.861Z,11.93
2019-03-31T07:03:48.004Z,11.80
2019-03-31T07:06:36.185Z,11.30
2019-03-31T07:09:23.883Z,12.67
2019-03-31T07:12:12.299Z,12.67
2019-03-31T07:15:00.343Z,11.77
2019-03-31T07:17:49.339Z,12.77
2019-03-31T07:20:37.610Z,12.90
2019-03-31T07:23:25.665Z,12.77
2019-03-31T07:26:13.721Z,12.90
2019-03-31T07:29:02.033Z,13.70
2019-03-31T07:31:50.426Z,13.77
2019-03-31T07:34:38.558Z,12.87
2019-03-31T07:37:26.563Z,13.10
2019-03-31T07:40:15.176Z,12.97
2019-03-31T07:43:04.064Z,12.90
2019-03-31T07:45:52.001Z,14.00
2019-03-31T07:48:39.851Z,13.53
2019-03-31T07:51:28.067Z,12.73
2019-03-31T07:54:16.633Z,12.73
2019-03-31T07:57:06.985Z,12.80
2019-03-31T07:59:56.551Z,12.77
2019-03-31T08:02:44.455Z,14.17
2019-03-31T08:05:34.881Z,13.70
2019-03-31T08:08:22.259Z,13.93
2019-03-31T08:11:10.393Z,13.37
2019-03-31T08:13:58.151Z,13.03
2019-03-31T08:16:46.376Z,13.77
2019-03-31T08:19:34.290Z,14.43
2019-03-31T08:22:22.614Z,13.50
2019-03-31T08:25:12.299Z,14.53
2019-03-31T08:28:00.729Z,13.10
2019-03-31T08:30:48.772Z,13.37
2019-03-31T08:33:36.938Z,13.07
2019-03-31T08:36:25.373Z,12.73
2019-03-31T08:39:14.529Z,13.67
2019-03-31T08:42:02.784Z,13.43
2019-03-31T08:44:50.446Z,12.67
2019-03-31T08:47:38.685Z,14.70
2019-03-31T08:50:26.905Z,13.47
2019-03-31T08:53:15.365Z,13.73
2019-03-31T08:56:03.446Z,13.40
2019-03-31T08:58:51.689Z,13.03
2019-03-31T09:01:41.315Z,13.70
2019-03-31T09:04:29.896Z,12.53
2019-03-31T09:07:18.551Z,12.40
2019-03-31T09:10:07.361Z,12.13
2019-03-31T09:12:55.816Z,11.97
2019-03-31T09:15:44.199Z,12.83
2019-03-31T09:18:32.624Z,11.60
2019-03-31T09:21:21.006Z,12.27
2019-03-31T09:24:09.259Z,12.23
2019-03-31T09:26:57.427Z,11.47
2019-03-31T09:29:45.788Z,11.93
2019-03-31T09:32:33.963Z,11.73
2019-03-31T09:35:22.075Z,12.13
2019-03-31T09:38:10.407Z,12.80
2019-03-31T09:40:58.781Z,12.77
2019-03-31T09:43:46.922Z,11.83
2019-03-31T09:46:35.946Z,12.87
2019-03-31T09:49:24.314Z,13.20
2019-03-31T09:52:12.732Z,12.27
2019-03-31T09:55:00.815Z,12.03
2019-03-31T09:57:48.592Z,12.27
2019-03-31T10:00:45.163Z,12.43
2019-03-31T10:03:32.880Z,11.73
2019-03-31T10:06:30.003Z,12.00
2019-03-31T10:09:10.933Z,11.67
2019-03-31T10:11:59.373Z,11.17
2019-03-31T10:14:47.661Z,11.60
2019-03-31T10:17:35.692Z,12.87
2019-03-31T10:20:23.844Z,12.73
2019-03-31T10:23:11.918Z,13.43
2019-03-31T10:26:00.206Z,13.43
2019-03-31T10:28:48.559Z,13.50
2019-03-31T10:31:36.660Z,13.47
2019-03-31T10:34:24.934Z,13.13
2019-03-31T10:37:13.214Z,12.70
2019-03-31T10:40:01.386Z,13.77
2019-03-31T10:42:49.574Z,13.17
2019-03-31T10:45:38.206Z,14.00
2019-03-31T10:48:26.168Z,14.37
2019-03-31T10:51:14.119Z,13.63
2019-03-31T10:54:04.601Z,13.47
2019-03-31T10:56:52.616Z,14.43
2019-03-31T10:59:40.485Z,14.23
2019-03-31T11:02:28.628Z,14.23
2019-03-31T11:05:16.946Z,14.40
2019-03-31T11:08:05.869Z,14.03
2019-03-31T11:10:54.276Z,14.57
2019-03-31T11:13:42.587Z,14.23
2019-03-31T11:16:30.782Z,15.03
2019-03-31T11:19:18.957Z,15.67
2019-03-31T11:22:12.155Z,15.47
2019-03-31T11:25:00.683Z,15.70
2019-03-31T11:27:48.690Z,15.33
2019-03-31T11:30:36.893Z,14.97
2019-03-31T11:33:25.207Z,14.67
2019-03-31T11:36:13.567Z,15.00
2019-03-31T11:39:01.903Z,15.63
2019-03-31T11:41:49.866Z,15.80
2019-03-31T11:44:38.109Z,16.40
2019-03-31T11:47:26.118Z,16.10
2019-03-31T11:50:14.303Z,15.37
2019-03-31T11:53:02.330Z,14.60
2019-03-31T11:55:49.991Z,14.97
2019-03-31T11:58:37.990Z,15.60
2019-03-31T12:01:26.029Z,14.67
2019-03-31T12:04:15.493Z,14.57
2019-03-31T12:07:04.019Z,14.97
2019-03-31T12:09:52.000Z,13.90
2019-03-31T12:12:40.107Z,14.07
2019-03-31T12:15:28.157Z,13.07
2019-03-31T12:18:16.643Z,13.07
2019-03-31T12:21:04.736Z,13.40
2019-03-31T12:23:52.946Z,12.13
2019-03-31T12:26:40.921Z,12.90
2019-03-31T12:29:29.312Z,11.90
2019-03-31T12:32:18.043Z,12.33
2019-03-31T12:35:07.033Z,11.37
2019-03-31T12:37:55.520Z,11.60
2019-03-31T12:40:43.705Z,12.53
2019-03-31T12:43:31.821Z,13.40
2019-03-31T12:46:19.828Z,13.50
2019-03-31T12:49:07.965Z,12.80
2019-03-31T12:51:55.573Z,12.57
2019-03-31T12:54:43.885Z,13.27
2019-03-31T12:57:31.838Z,12.13
2019-03-31T13:00:20.518Z,12.23
2019-03-31T13:03:08.816Z,11.70
2019-03-31T13:05:57.057Z,12.60
2019-03-31T13:08:45.082Z,12.53
2019-03-31T13:11:33.552Z,12.17
2019-03-31T13:14:21.577Z,12.27
2019-03-31T13:17:09.507Z,12.17
2019-03-31T13:19:57.567Z,11.93
2019-03-31T13:22:46.125Z,12.50
2019-03-31T13:25:34.124Z,11.30
2019-03-31T13:28:22.034Z,11.80
2019-03-31T13:31:10.406Z,11.10
2019-03-31T13:33:58.614Z,11.10
2019-03-31T13:36:46.967Z,10.57
2019-03-31T13:39:35.088Z,10.13
2019-03-31T13:42:23.575Z,10.93
2019-03-31T13:45:11.839Z,11.47
2019-03-31T13:47:59.780Z,11.03
2019-03-31T13:50:47.887Z,10.97
2019-03-31T13:53:35.821Z,10.80
2019-03-31T13:56:23.845Z,11.17
2019-03-31T13:59:11.941Z,10.67
2019-03-31T14:02:00.335Z,10.40
2019-03-31T14:04:51.849Z,10.40
2019-03-31T14:07:38.305Z,10.73
2019-03-31T14:10:26.199Z,10.37
2019-03-31T14:13:14.141Z,10.27
2019-03-31T14:16:02.235Z,10.53
2019-03-31T14:18:51.375Z,10.97
2019-03-31T14:21:40.172Z,10.50
2019-03-31T14:24:28.396Z,9.97
2019-03-31T14:27:16.544Z,10.63
2019-03-31T14:30:05.380Z,11.47
2019-03-31T14:32:53.622Z,10.90
2019-03-31T14:35:41.763Z,11.07
2019-03-31T14:38:40.003Z,10.27
2019-03-31T14:41:19.510Z,9.73
2019-03-31T14:44:07.450Z,9.50
2019-03-31T14:46:55.482Z,10.10
2019-03-31T14:49:43.830Z,10.70
2019-03-31T14:52:31.615Z,9.90
2019-03-31T14:55:19.388Z,10.17
2019-03-31T14:58:08.508Z,10.07
2019-03-31T15:00:56.484Z,10.27
2019-03-31T15:03:44.829Z,10.27
2019-03-31T15:06:32.498Z,9.53
2019-03-31T15:09:20.380Z,8.97
2019-03-31T15:12:08.321Z,9.47
2019-03-31T15:14:56.496Z,9.40
2019-03-31T15:17:44.728Z,10.50
2019-03-31T15:20:32.996Z,9.53
2019-03-31T15:23:29.105Z,8.70
2019-03-31T15:26:11.040Z,8.60
2019-03-31T15:28:59.410Z,8.73
2019-03-31T15:31:48.276Z,9.17
2019-03-31T15:34:36.714Z,9.27
2019-03-31T15:37:25.104Z,9.67
2019-03-31T15:40:13.316Z,9.17
2019-03-31T15:43:01.492Z,8.87
2019-03-31T15:45:49.398Z,9.67
2019-03-31T15:48:37.469Z,9.10
2019-03-31T15:51:25.511Z,8.43
2019-03-31T15:54:13.375Z,9.10
2019-03-31T15:57:01.399Z,7.73
2019-03-31T15:59:52.733Z,9.30
2019-03-31T16:02:40.810Z,8.30
2019-03-31T16:05:28.999Z,8.17
2019-03-31T16:08:16.445Z,11.27
2019-03-31T16:11:04.905Z,8.60
2019-03-31T16:13:52.650Z,7.60
2019-03-31T16:16:40.090Z,7.80
2019-03-31T16:19:27.620Z,8.73
2019-03-31T16:22:15.102Z,8.30
2019-03-31T16:25:03.541Z,8.83
2019-03-31T16:27:50.636Z,8.87
2019-03-31T16:30:38.524Z,8.60
2019-03-31T16:33:26.313Z,8.37
2019-03-31T16:36:13.512Z,8.13
2019-03-31T16:39:00.631Z,8.17
2019-03-31T16:41:48.790Z,8.20
2019-03-31T16:44:36.218Z,8.57
2019-03-31T16:47:24.069Z,9.23
2019-03-31T16:50:12.459Z,8.37
2019-03-31T16:52:59.923Z,8.63
2019-03-31T16:55:47.562Z,7.80
2019-03-31T16:58:35.194Z,8.87
2019-03-31T17:01:22.840Z,8.47
2019-03-31T17:04:10.830Z,8.37
2019-03-31T17:06:58.452Z,7.90
2019-03-31T17:09:51.753Z,8.23
2019-03-31T17:12:35.559Z,8.20
2019-03-31T17:15:23.390Z,7.37
2019-03-31T17:18:10.709Z,8.50
2019-03-31T17:20:58.276Z,8.80
2019-03-31T17:23:45.743Z,8.03
2019-03-31T17:26:33.338Z,7.30
2019-03-31T17:29:23.666Z,7.20
2019-03-31T17:32:11.994Z,7.77
2019-03-31T17:35:01.184Z,6.73
2019-03-31T17:37:48.644Z,7.07
2019-03-31T17:40:36.279Z,7.30
2019-03-31T17:43:23.718Z,7.17
2019-03-31T17:46:10.866Z,7.40
2019-03-31T17:48:59.072Z,7.33
2019-03-31T17:51:49.343Z,7.60
2019-03-31T17:54:39.456Z,7.63
2019-03-31T17:57:27.884Z,7.27
2019-03-31T18:00:15.998Z,7.23
2019-03-31T18:03:03.775Z,6.63
2019-03-31T18:05:51.161Z,7.27
2019-03-31T18:08:42.297Z,7.07
2019-03-31T18:11:32.322Z,6.80
2019-03-31T18:14:19.774Z,6.87
2019-03-31T18:17:07.611Z,6.80
2019-03-31T18:19:55.571Z,7.20
2019-03-31T18:22:46.458Z,7.10
2019-03-31T18:25:34.110Z,6.73
2019-03-31T18:28:22.041Z,7.27
2019-03-31T18:31:10.332Z,6.30
2019-03-31T18:33:57.977Z,6.87
2019-03-31T18:36:45.672Z,6.70
2019-03-31T18:39:33.165Z,6.90
2019-03-31T18:42:20.384Z,6.70
2019-03-31T18:45:07.956Z,6.80
2019-03-31T18:47:55.377Z,6.13
2019-03-31T18:50:43.220Z,6.83
2019-03-31T18:53:55.877Z,6.87
2019-03-31T18:57:08.415Z,6.27
2019-03-31T19:00:16.168Z,6.17
2019-03-31T19:03:21.624Z,6.83
2019-03-31T19:06:22.456Z,6.67
2019-03-31T19:09:34.813Z,6.33
2019-03-31T19:12:32.716Z,5.90
2019-03-31T19:15:48.707Z,6.73
2019-03-31T19:18:49.225Z,6.40
2019-03-31T19:22:11.168Z,6.83
2019-03-31T19:25:16.577Z,6.77
2019-03-31T19:28:33.715Z,6.67
2019-03-31T19:31:28.326Z,6.70
2019-03-31T19:34:26.711Z,6.97
2019-03-31T19:37:45.366Z,7.20
2019-03-31T19:41:03.305Z,7.03
2019-03-31T19:44:01.116Z,6.30
2019-03-31T19:47:03.991Z,7.53
2019-03-31T19:50:05.548Z,7.40
2019-03-31T19:53:13.176Z,7.30
2019-03-31T19:56:10.690Z,7.53
2019-03-31T19:59:18.022Z,7.23
2019-03-31T20:02:25.461Z,6.90
2019-03-31T20:05:27.366Z,7.03
2019-03-31T20:08:36.153Z,8.03
2019-03-31T20:12:01.062Z,8.10
2019-03-31T20:15:20.320Z,7.90
2019-03-31T20:18:32.863Z,8.13
2019-03-31T20:21:32.360Z,8.70
2019-03-31T20:24:26.493Z,8.47
2019-03-31T20:27:40.502Z,8.57
2019-03-31T20:30:50.068Z,8.60
2019-03-31T20:33:46.997Z,8.63
2019-03-31T20:36:59.872Z,8.97
2019-03-31T20:40:11.864Z,8.63
2019-03-31T20:43:15.331Z,9.40
2019-03-31T20:46:04.552Z,8.07
2019-03-31T20:48:52.481Z,8.23
2019-03-31T20:51:40.102Z,8.93
2019-03-31T20:54:27.563Z,8.73
2019-03-31T20:57:15.864Z,9.40
2019-03-31T21:00:04.057Z,9.30
2019-03-31T21:02:51.888Z,9.13
2019-03-31T21:05:39.020Z,9.67
2019-03-31T21:08:26.290Z,9.37
2019-03-31T21:11:13.986Z,9.23
2019-03-31T21:14:01.515Z,9.80
2019-03-31T21:16:48.712Z,9.50
2019-03-31T21:19:36.199Z,9.73
2019-03-31T21:22:24.071Z,9.97
2019-03-31T21:25:13.677Z,9.60
2019-03-31T21:28:00.818Z,9.50
2019-03-31T21:30:48.589Z,9.50
2019-03-31T21:33:36.259Z,10.40
2019-03-31T21:36:24.326Z,10.33
2019-03-31T21:39:12.076Z,11.10
2019-03-31T21:41:59.792Z,10.07
2019-03-31T21:44:47.041Z,9.50
2019-03-31T21:47:34.748Z,10.67
2019-03-31T21:50:22.902Z,10.57
2019-03-31T21:53:10.679Z,9.53
2019-03-31T21:55:57.899Z,10.50
2019-03-31T21:58:45.541Z,9.97
2019-03-31T22:01:33.323Z,9.23
2019-03-31T22:04:20.955Z,10.90
2019-03-31T22:07:08.352Z,10.50
2019-03-31T22:09:55.945Z,10.33
2019-03-31T22:12:43.612Z,10.27
2019-03-31T22:15:31.336Z,10.67
2019-03-31T22:18:19.364Z,10.90
2019-03-31T22:21:06.708Z,10.20
2019-03-31T22:23:58.226Z,10.97
2019-03-31T22:26:43.148Z,10.47
2019-03-31T22:29:30.597Z,10.43
2019-03-31T22:32:17.961Z,9.53
2019-03-31T22:35:05.802Z,10.60
2019-03-31T22:37:53.338Z,11.17
2019-03-31T22:40:40.435Z,10.33
2019-03-31T22:43:28.198Z,10.40
2019-03-31T22:46:15.366Z,11.40
2019-03-31T22:49:02.841Z,11.90
2019-03-31T22:51:50.658Z,11.93
2019-03-31T22:54:38.096Z,10.93
2019-03-31T22:57:25.874Z,11.57
2019-03-31T23:00:20.358Z,11.10
2019-03-31T23:03:07.976Z,11.13
2019-03-31T23:05:55.363Z,10.90
2019-03-31T23:08:42.970Z,11.90
2019-03-31T23:11:30.435Z,10.63
2019-03-31T23:14:18.231Z,12.00
2019-03-31T23:17:05.406Z,11.77
2019-03-31T23:19:52.904Z,11.83
2019-03-31T23:22:40.416Z,12.40
2019-03-31T23:25:27.596Z,12.43
2019-03-31T23:28:15.504Z,11.87
2019-03-31T23:31:03.806Z,12.47
2019-03-31T23:33:52.723Z,11.37
2019-03-31T23:36:40.768Z,11.70
2019-03-31T23:39:28.611Z,12.70
2019-03-31T23:42:16.075Z,11.70
2019-03-31T23:45:03.941Z,11.70
2019-03-31T23:47:51.592Z,12.43
2019-03-31T23:50:39.073Z,12.17
2019-03-31T23:53:26.762Z,11.73
2019-03-31T23:56:13.848Z,12.33
2019-03-31T23:59:01.395Z,13.17
